createdAt,value
2018-03-11T00:01:51.035Z,9.38
2018-03-11T00:02:53.538Z,9.70
2018-03-11T00:03:56.050Z,10.52
2018-03-11T00:04:59.325Z,10.07
2018-03-11T00:06:01.831Z,10.25
2018-03-11T00:07:04.348Z,10.55
2018-03-11T00:08:06.837Z,10.60
2018-03-11T00:09:10.872Z,10.70
2018-03-11T00:10:13.379Z,10.90
2018-03-11T00:11:15.864Z,9.00
2018-03-11T00:12:18.369Z,10.05
2018-03-11T00:13:21.674Z,11.52
2018-03-11T00:14:24.171Z,11.07
2018-03-11T00:15:26.662Z,10.63
2018-03-11T00:16:29.159Z,12.18
2018-03-11T00:17:32.415Z,12.43
2018-03-11T00:18:34.925Z,10.38
2018-03-11T00:19:38.204Z,10.38
2018-03-11T00:20:41.473Z,10.57
2018-03-11T00:21:43.974Z,12.02
2018-03-11T00:22:47.240Z,15.75
2018-03-11T00:23:49.730Z,10.90
2018-03-11T00:24:52.999Z,9.55
2018-03-11T00:25:55.492Z,9.73
2018-03-11T00:26:58.753Z,12.73
2018-03-11T00:28:01.250Z,10.07
2018-03-11T00:29:04.506Z,9.73
2018-03-11T00:30:07.049Z,10.23
2018-03-11T00:31:09.544Z,9.07
2018-03-11T00:32:12.046Z,9.00
2018-03-11T00:33:15.325Z,11.40
2018-03-11T00:34:18.592Z,10.70
2018-03-11T00:35:21.144Z,10.45
2018-03-11T00:36:23.642Z,11.70
2018-03-11T00:37:26.146Z,10.68
2018-03-11T00:38:28.641Z,9.90
2018-03-11T00:39:31.152Z,12.60
2018-03-11T00:40:33.762Z,8.93
2018-03-11T00:41:36.283Z,10.32
2018-03-11T00:42:38.816Z,10.43
2018-03-11T00:43:41.333Z,12.02
2018-03-11T00:44:44.590Z,13.30
2018-03-11T00:45:47.124Z,11.63
2018-03-11T00:46:50.441Z,10.30
2018-03-11T00:47:52.952Z,11.25
2018-03-11T00:48:55.440Z,12.55
2018-03-11T00:49:58.762Z,10.25
2018-03-11T00:51:01.282Z,11.50
2018-03-11T00:52:03.899Z,12.65
2018-03-11T00:53:06.469Z,10.82
2018-03-11T00:54:09.042Z,11.57
2018-03-11T00:55:11.532Z,8.80
2018-03-11T00:56:14.059Z,10.95
2018-03-11T00:57:17.351Z,11.82
2018-03-11T00:58:20.612Z,12.05
2018-03-11T00:59:23.121Z,9.93
2018-03-11T01:00:25.630Z,10.48
2018-03-11T01:01:28.158Z,11.27
2018-03-11T01:02:31.406Z,9.68
2018-03-11T01:03:33.922Z,11.77
2018-03-11T01:04:36.447Z,11.12
2018-03-11T01:05:38.948Z,9.98
2018-03-11T01:06:42.243Z,11.88
2018-03-11T01:07:44.744Z,11.30
2018-03-11T01:08:47.231Z,10.88
2018-03-11T01:09:49.736Z,13.35
2018-03-11T01:10:52.234Z,10.57
2018-03-11T01:11:54.791Z,10.68
2018-03-11T01:12:57.267Z,10.52
2018-03-11T01:13:59.773Z,8.98
2018-03-11T01:15:02.282Z,10.50
2018-03-11T01:16:05.563Z,11.85
2018-03-11T01:17:08.080Z,11.35
2018-03-11T01:18:10.612Z,9.95
2018-03-11T01:19:13.876Z,10.02
2018-03-11T01:20:16.403Z,12.52
2018-03-11T01:21:18.895Z,10.80
2018-03-11T01:22:21.400Z,11.27
2018-03-11T01:23:23.891Z,12.05
2018-03-11T01:24:27.168Z,15.13
2018-03-11T01:25:30.430Z,11.95
2018-03-11T01:26:32.935Z,14.05
2018-03-11T01:27:36.210Z,10.27
2018-03-11T01:28:38.705Z,11.35
2018-03-11T01:29:42.001Z,12.52
2018-03-11T01:30:44.493Z,14.63
2018-03-11T01:31:47.003Z,10.63
2018-03-11T01:32:49.528Z,11.30
2018-03-11T01:33:52.021Z,10.82
2018-03-11T01:34:54.522Z,12.00
2018-03-11T01:35:57.020Z,12.55
2018-03-11T01:36:59.533Z,10.70
2018-03-11T01:38:02.056Z,10.95
2018-03-11T01:39:05.308Z,13.05
2018-03-11T01:40:07.816Z,12.85
2018-03-11T01:41:11.096Z,13.68
2018-03-11T01:42:14.354Z,12.52
2018-03-11T01:43:16.863Z,12.93
2018-03-11T01:44:20.120Z,11.68
2018-03-11T01:45:22.628Z,14.68
2018-03-11T01:46:25.138Z,12.95
2018-03-11T01:47:27.643Z,17.05
2018-03-11T01:48:30.148Z,16.12
2018-03-11T01:49:32.642Z,15.43
2018-03-11T01:50:35.138Z,13.57
2018-03-11T01:51:37.639Z,13.77
2018-03-11T01:52:52.961Z,12.35
2018-03-11T01:53:56.244Z,15.93
2018-03-11T01:54:58.770Z,13.40
2018-03-11T01:56:02.043Z,13.20
2018-03-11T01:57:04.533Z,14.75
2018-03-11T01:58:07.045Z,14.35
2018-03-11T01:59:09.573Z,18.33
2018-03-11T02:00:12.138Z,14.63
2018-03-11T02:01:15.411Z,16.27
2018-03-11T02:02:17.921Z,12.50
2018-03-11T02:03:20.457Z,13.93
2018-03-11T02:04:22.955Z,17.33
2018-03-11T02:05:25.468Z,14.50
2018-03-11T02:06:27.967Z,12.77
2018-03-11T02:07:31.232Z,16.17
2018-03-11T02:08:33.744Z,14.20
2018-03-11T02:09:36.262Z,15.68
2018-03-11T02:10:38.753Z,17.73
2018-03-11T02:11:41.272Z,14.32
2018-03-11T02:12:43.768Z,13.73
2018-03-11T02:13:46.291Z,14.70
2018-03-11T02:14:49.570Z,14.52
2018-03-11T02:15:52.856Z,13.82
2018-03-11T02:16:56.120Z,15.80
2018-03-11T02:17:58.624Z,15.10
2018-03-11T02:19:01.897Z,13.10
2018-03-11T02:20:05.181Z,17.23
2018-03-11T02:21:09.472Z,15.75
2018-03-11T02:22:12.006Z,13.77
2018-03-11T02:23:14.523Z,13.82
2018-03-11T02:24:17.047Z,15.77
2018-03-11T02:25:19.550Z,16.15
2018-03-11T02:26:22.043Z,14.20
2018-03-11T02:27:24.542Z,15.45
2018-03-11T02:28:27.041Z,18.77
2018-03-11T02:29:29.530Z,17.08
2018-03-11T02:30:32.067Z,20.88
2018-03-11T02:31:34.568Z,15.18
2018-03-11T02:32:37.855Z,20.58
2018-03-11T02:33:40.352Z,23.42
2018-03-11T02:34:42.866Z,17.52
2018-03-11T02:35:45.474Z,20.27
2018-03-11T02:36:47.981Z,17.42
2018-03-11T02:37:51.234Z,18.33
2018-03-11T02:38:53.754Z,19.37
2018-03-11T02:39:56.254Z,21.30
2018-03-11T02:40:58.775Z,20.35
2018-03-11T02:42:02.048Z,20.35
2018-03-11T02:43:04.535Z,18.95
2018-03-11T02:44:07.797Z,22.48
2018-03-11T02:45:11.087Z,21.98
2018-03-11T02:46:13.586Z,24.58
2018-03-11T02:47:16.845Z,25.50
2018-03-11T02:48:19.336Z,20.37
2018-03-11T02:49:22.624Z,23.23
2018-03-11T02:50:25.889Z,30.33
2018-03-11T02:51:28.441Z,28.55
2018-03-11T02:52:30.945Z,21.23
2018-03-11T02:53:33.434Z,24.65
2018-03-11T02:54:37.152Z,26.98
2018-03-11T02:55:39.656Z,22.65
2018-03-11T02:56:42.173Z,25.80
2018-03-11T02:57:45.448Z,27.65
2018-03-11T02:58:48.730Z,28.48
2018-03-11T02:59:51.215Z,30.80
2018-03-11T03:00:54.479Z,25.75
2018-03-11T03:01:56.979Z,28.35
2018-03-11T03:03:00.241Z,29.50
2018-03-11T03:04:02.754Z,28.92
2018-03-11T03:05:05.249Z,28.98
2018-03-11T03:06:07.742Z,30.27
2018-03-11T03:07:10.270Z,30.33
2018-03-11T03:08:12.760Z,29.98
2018-03-11T03:09:15.281Z,27.37
2018-03-11T03:10:18.568Z,29.40
2018-03-11T03:11:21.860Z,31.02
2018-03-11T03:12:25.141Z,35.20
2018-03-11T03:13:28.407Z,34.40
2018-03-11T03:14:30.917Z,33.08
2018-03-11T03:15:34.181Z,31.50
2018-03-11T03:16:36.687Z,35.60
2018-03-11T03:17:39.197Z,31.05
2018-03-11T03:18:41.695Z,33.97
2018-03-11T03:19:44.209Z,39.50
2018-03-11T03:20:46.770Z,37.33
2018-03-11T03:21:49.279Z,34.47
2018-03-11T03:22:51.776Z,32.42
2018-03-11T03:23:55.072Z,32.10
2018-03-11T03:24:58.330Z,31.35
2018-03-11T03:26:00.826Z,36.58
2018-03-11T03:27:04.117Z,32.70
2018-03-11T03:28:07.392Z,38.33
2018-03-11T03:29:09.927Z,38.33
2018-03-11T03:30:12.431Z,33.85
2018-03-11T03:31:14.944Z,43.05
2018-03-11T03:32:18.210Z,33.95
2018-03-11T03:33:21.476Z,34.75
2018-03-11T03:34:23.969Z,35.35
2018-03-11T03:35:27.219Z,30.58
2018-03-11T03:36:29.705Z,38.95
2018-03-11T03:37:32.195Z,35.75
2018-03-11T03:38:35.466Z,37.33
2018-03-11T03:39:37.980Z,33.17
2018-03-11T03:40:40.543Z,42.05
2018-03-11T03:41:43.038Z,41.00
2018-03-11T03:42:45.543Z,40.03
2018-03-11T03:43:48.811Z,38.80
2018-03-11T03:44:51.312Z,42.85
2018-03-11T03:45:53.813Z,44.92
2018-03-11T03:46:56.386Z,45.15
2018-03-11T03:47:58.880Z,39.17
2018-03-11T03:49:01.375Z,46.63
2018-03-11T03:50:04.653Z,46.35
2018-03-11T03:51:07.157Z,46.70
2018-03-11T03:52:09.674Z,47.90
2018-03-11T03:53:12.170Z,42.10
2018-03-11T03:54:14.663Z,45.05
2018-03-11T03:55:17.173Z,46.97
2018-03-11T03:56:19.673Z,46.60
2018-03-11T03:57:22.168Z,42.75
2018-03-11T03:58:25.426Z,44.72
2018-03-11T03:59:27.935Z,46.10
2018-03-11T04:00:30.409Z,46.55
2018-03-11T04:01:33.679Z,47.78
2018-03-11T04:02:36.191Z,46.65
2018-03-11T04:03:38.689Z,48.10
2018-03-11T04:04:41.190Z,40.58
2018-03-11T04:05:43.718Z,46.37
2018-03-11T04:06:46.213Z,42.45
2018-03-11T04:07:48.720Z,44.85
2018-03-11T04:08:51.982Z,40.05
2018-03-11T04:09:54.491Z,46.33
2018-03-11T04:10:57.003Z,46.20
2018-03-11T04:11:59.496Z,40.67
2018-03-11T04:13:01.984Z,42.20
2018-03-11T04:14:05.244Z,39.85
2018-03-11T04:15:07.740Z,39.47
2018-03-11T04:16:11.013Z,41.13
2018-03-11T04:17:14.278Z,36.38
2018-03-11T04:18:16.783Z,41.28
2018-03-11T04:19:20.045Z,40.28
2018-03-11T04:20:22.548Z,46.17
2018-03-11T04:21:25.820Z,39.88
2018-03-11T04:22:28.296Z,37.13
2018-03-11T04:23:31.557Z,39.30
2018-03-11T04:24:34.059Z,39.72
2018-03-11T04:25:37.319Z,41.13
2018-03-11T04:26:39.823Z,38.25
2018-03-11T04:27:43.080Z,37.00
2018-03-11T04:28:45.574Z,37.85
2018-03-11T04:29:48.848Z,42.60
2018-03-11T04:30:51.344Z,42.60
2018-03-11T04:31:54.628Z,37.78
2018-03-11T04:32:57.890Z,36.35
2018-03-11T04:34:00.386Z,37.63
2018-03-11T04:35:03.646Z,38.47
2018-03-11T04:36:06.150Z,41.85
2018-03-11T04:37:08.668Z,39.45
2018-03-11T04:38:11.244Z,42.33
2018-03-11T04:39:13.715Z,42.35
2018-03-11T04:40:16.227Z,40.95
2018-03-11T04:41:19.505Z,33.78
2018-03-11T04:42:22.762Z,35.15
2018-03-11T04:43:25.252Z,39.78
2018-03-11T04:44:27.749Z,37.58
2018-03-11T04:45:31.002Z,40.92
2018-03-11T04:46:33.520Z,40.85
2018-03-11T04:47:36.026Z,42.67
2018-03-11T04:48:38.550Z,39.40
2018-03-11T04:49:41.806Z,38.85
2018-03-11T04:50:44.539Z,40.38
2018-03-11T04:51:47.052Z,40.67
2018-03-11T04:52:50.318Z,39.97
2018-03-11T04:53:52.817Z,36.00
2018-03-11T04:54:55.298Z,37.38
2018-03-11T04:55:58.568Z,35.45
2018-03-11T04:57:01.084Z,37.65
2018-03-11T04:58:03.647Z,42.80
2018-03-11T04:59:06.153Z,37.17
2018-03-11T05:00:08.643Z,36.20
2018-03-11T05:01:11.139Z,37.38
2018-03-11T05:02:14.398Z,42.08
2018-03-11T05:03:16.886Z,37.47
2018-03-11T05:04:19.491Z,33.85
2018-03-11T05:05:21.979Z,36.55
2018-03-11T05:06:24.479Z,37.13
2018-03-11T05:07:26.981Z,35.60
2018-03-11T05:08:30.232Z,34.63
2018-03-11T05:09:32.727Z,36.72
2018-03-11T05:10:35.991Z,41.42
2018-03-11T05:11:38.491Z,35.67
2018-03-11T05:12:41.774Z,30.15
2018-03-11T05:13:45.041Z,43.42
2018-03-11T05:14:47.590Z,36.05
2018-03-11T05:15:50.056Z,35.20
2018-03-11T05:16:52.545Z,33.60
2018-03-11T05:17:55.174Z,38.13
2018-03-11T05:18:57.700Z,37.70
2018-03-11T05:20:01.709Z,37.10
2018-03-11T05:21:04.221Z,34.15
2018-03-11T05:22:06.711Z,35.05
2018-03-11T05:23:09.216Z,34.35
2018-03-11T05:24:13.240Z,36.85
2018-03-11T05:25:16.524Z,36.97
2018-03-11T05:26:19.798Z,33.90
2018-03-11T05:27:22.298Z,34.88
2018-03-11T05:28:25.581Z,34.85
2018-03-11T05:29:28.842Z,39.92
2018-03-11T05:30:31.330Z,37.92
2018-03-11T05:31:34.583Z,37.08
2018-03-11T05:32:37.067Z,36.13
2018-03-11T05:33:39.596Z,35.55
2018-03-11T05:34:42.132Z,35.75
2018-03-11T05:35:45.394Z,36.85
2018-03-11T05:36:47.914Z,42.85
2018-03-11T05:37:50.404Z,38.30
2018-03-11T05:38:52.905Z,39.70
2018-03-11T05:39:55.428Z,41.65
2018-03-11T05:40:57.922Z,37.42
2018-03-11T05:42:00.418Z,36.50
2018-03-11T05:43:03.685Z,41.65
2018-03-11T05:44:06.177Z,36.28
2018-03-11T05:45:09.568Z,37.45
2018-03-11T05:46:12.265Z,37.97
2018-03-11T05:47:15.519Z,42.05
2018-03-11T05:48:18.012Z,34.65
2018-03-11T05:49:20.502Z,39.15
2018-03-11T05:50:23.792Z,41.70
2018-03-11T05:51:27.070Z,38.95
2018-03-11T05:52:30.351Z,44.78
2018-03-11T05:53:33.619Z,41.55
2018-03-11T05:54:36.114Z,42.33
2018-03-11T05:55:38.626Z,43.63
2018-03-11T05:56:41.114Z,42.83
2018-03-11T05:57:43.612Z,35.97
2018-03-11T05:58:46.227Z,47.65
2018-03-11T05:59:48.730Z,38.63
2018-03-11T06:00:51.242Z,44.13
2018-03-11T06:01:54.502Z,45.60
2018-03-11T06:02:57.006Z,39.47
2018-03-11T06:04:00.275Z,42.50
2018-03-11T06:05:02.772Z,39.72
2018-03-11T06:06:06.064Z,42.53
2018-03-11T06:07:08.567Z,40.58
2018-03-11T06:08:11.134Z,41.28
2018-03-11T06:09:13.660Z,38.30
2018-03-11T06:10:16.936Z,38.75
2018-03-11T06:11:20.943Z,40.17
2018-03-11T06:12:23.444Z,31.02
2018-03-11T06:13:25.938Z,35.85
2018-03-11T06:14:28.430Z,40.38
2018-03-11T06:15:30.929Z,38.47
2018-03-11T06:16:34.195Z,35.42
2018-03-11T06:17:36.690Z,30.65
2018-03-11T06:18:39.950Z,40.88
2018-03-11T06:19:42.463Z,35.70
2018-03-11T06:20:44.960Z,40.35
2018-03-11T06:21:47.479Z,29.98
2018-03-11T06:22:49.975Z,36.08
2018-03-11T06:23:52.470Z,33.22
2018-03-11T06:24:54.969Z,30.70
2018-03-11T06:25:57.470Z,32.00
2018-03-11T06:27:00.756Z,28.25
2018-03-11T06:28:04.015Z,28.85
2018-03-11T06:29:06.534Z,32.45
2018-03-11T06:30:09.038Z,28.80
2018-03-11T06:31:11.627Z,25.10
2018-03-11T06:32:14.148Z,29.15
2018-03-11T06:33:16.637Z,27.52
2018-03-11T06:34:19.124Z,25.60
2018-03-11T06:35:21.606Z,26.37
2018-03-11T06:36:24.107Z,24.70
2018-03-11T06:37:27.447Z,22.48
2018-03-11T06:38:29.950Z,20.80
2018-03-11T06:39:32.442Z,24.33
2018-03-11T06:40:35.702Z,28.20
2018-03-11T06:41:38.201Z,22.65
2018-03-11T06:42:41.469Z,24.10
2018-03-11T06:43:43.959Z,23.05
2018-03-11T06:44:47.219Z,19.98
2018-03-11T06:45:49.728Z,19.62
2018-03-11T06:46:52.983Z,20.52
2018-03-11T06:47:55.489Z,19.40
2018-03-11T06:48:57.982Z,18.62
2018-03-11T06:50:00.488Z,18.25
2018-03-11T06:51:03.756Z,22.37
2018-03-11T06:52:06.251Z,17.23
2018-03-11T06:53:08.759Z,23.75
2018-03-11T06:54:11.387Z,18.23
2018-03-11T06:55:13.892Z,17.60
2018-03-11T06:56:16.389Z,14.60
2018-03-11T06:57:18.945Z,18.00
2018-03-11T06:58:21.448Z,17.27
2018-03-11T06:59:23.947Z,15.73
2018-03-11T07:00:26.434Z,18.27
2018-03-11T07:01:29.691Z,15.43
2018-03-11T07:02:32.178Z,19.33
2018-03-11T07:03:35.447Z,15.75
2018-03-11T07:04:37.944Z,16.83
2018-03-11T07:05:41.227Z,17.20
2018-03-11T07:06:43.830Z,16.15
2018-03-11T07:07:46.379Z,17.45
2018-03-11T07:08:49.662Z,12.43
2018-03-11T07:09:52.935Z,15.98
2018-03-11T07:10:55.463Z,13.85
2018-03-11T07:11:57.996Z,16.50
2018-03-11T07:13:01.304Z,13.48
2018-03-11T07:14:03.803Z,12.40
2018-03-11T07:15:06.300Z,12.07
2018-03-11T07:16:08.798Z,11.43
2018-03-11T07:17:11.442Z,17.48
2018-03-11T07:18:13.991Z,13.40
2018-03-11T07:19:16.487Z,14.60
2018-03-11T07:20:18.981Z,12.98
2018-03-11T07:21:22.251Z,11.93
2018-03-11T07:22:24.770Z,14.07
2018-03-11T07:23:27.281Z,13.10
2018-03-11T07:24:29.776Z,14.13
2018-03-11T07:25:33.038Z,13.05
2018-03-11T07:26:35.548Z,11.93
2018-03-11T07:27:38.051Z,11.85
2018-03-11T07:28:40.561Z,11.60
2018-03-11T07:29:43.075Z,12.73
2018-03-11T07:30:45.579Z,14.87
2018-03-11T07:31:48.114Z,13.38
2018-03-11T07:32:50.611Z,13.48
2018-03-11T07:33:53.119Z,10.73
2018-03-11T07:34:55.631Z,11.10
2018-03-11T07:35:58.170Z,9.85
2018-03-11T07:37:01.408Z,13.90
2018-03-11T07:38:03.933Z,10.82
2018-03-11T07:39:07.180Z,9.45
2018-03-11T07:40:09.764Z,10.60
2018-03-11T07:41:12.469Z,10.93
2018-03-11T07:42:15.739Z,10.77
2018-03-11T07:43:18.235Z,9.65
2018-03-11T07:44:20.739Z,11.65
2018-03-11T07:45:23.256Z,9.25
2018-03-11T07:46:25.754Z,10.43
2018-03-11T07:47:28.247Z,7.87
2018-03-11T07:48:30.732Z,9.18
2018-03-11T07:49:33.230Z,9.05
2018-03-11T07:50:36.527Z,8.43
2018-03-11T07:51:39.836Z,12.60
2018-03-11T07:52:42.327Z,13.10
2018-03-11T07:53:44.815Z,9.25
2018-03-11T07:54:47.321Z,10.18
2018-03-11T07:55:50.641Z,8.43
2018-03-11T07:56:53.164Z,8.75
2018-03-11T07:57:55.663Z,9.77
2018-03-11T07:58:58.941Z,10.15
2018-03-11T08:00:02.186Z,8.30
2018-03-11T08:01:04.703Z,8.70
2018-03-11T08:02:07.955Z,10.50
2018-03-11T08:03:10.546Z,10.80
2018-03-11T08:04:13.074Z,8.93
2018-03-11T08:05:15.566Z,8.82
2018-03-11T08:06:18.082Z,8.48
2018-03-11T08:07:21.343Z,10.13
2018-03-11T08:08:23.938Z,8.73
2018-03-11T08:09:27.200Z,10.20
2018-03-11T08:10:29.715Z,10.40
2018-03-11T08:11:32.230Z,9.55
2018-03-11T08:12:34.727Z,9.40
2018-03-11T08:13:37.979Z,9.43
2018-03-11T08:14:40.515Z,13.73
2018-03-11T08:15:43.034Z,9.15
2018-03-11T08:16:45.587Z,10.18
2018-03-11T08:17:48.086Z,8.93
2018-03-11T08:18:51.349Z,9.52
2018-03-11T08:19:53.847Z,8.40
2018-03-11T08:20:56.360Z,10.88
2018-03-11T08:21:58.864Z,9.05
2018-03-11T08:23:01.377Z,8.98
2018-03-11T08:24:04.639Z,11.15
2018-03-11T08:25:07.147Z,8.23
2018-03-11T08:26:09.677Z,8.35
2018-03-11T08:27:12.509Z,10.05
2018-03-11T08:28:15.016Z,10.70
2018-03-11T08:29:17.517Z,9.35
2018-03-11T08:30:20.780Z,9.85
2018-03-11T08:31:23.298Z,11.05
2018-03-11T08:32:25.867Z,8.93
2018-03-11T08:33:28.365Z,10.93
2018-03-11T08:34:30.862Z,7.62
2018-03-11T08:35:33.378Z,9.23
2018-03-11T08:36:35.878Z,8.63
2018-03-11T08:37:38.434Z,11.52
2018-03-11T08:38:40.931Z,9.25
2018-03-11T08:39:43.439Z,8.68
2018-03-11T08:40:46.710Z,10.57
2018-03-11T08:41:49.976Z,9.88
2018-03-11T08:42:52.522Z,9.73
2018-03-11T08:43:55.028Z,9.32
2018-03-11T08:44:57.539Z,9.98
2018-03-11T08:46:00.802Z,9.52
2018-03-11T08:47:03.408Z,9.18
2018-03-11T08:48:05.932Z,11.35
2018-03-11T08:49:08.439Z,11.80
2018-03-11T08:50:11.971Z,9.70
2018-03-11T08:51:14.572Z,16.50
2018-03-11T08:52:17.099Z,9.38
2018-03-11T08:53:19.606Z,11.50
2018-03-11T08:54:22.109Z,10.73
2018-03-11T08:55:25.386Z,11.12
2018-03-11T08:56:28.646Z,11.38
2018-03-11T08:57:31.178Z,12.50
2018-03-11T08:58:33.676Z,10.18
2018-03-11T08:59:36.176Z,9.70
2018-03-11T09:00:38.689Z,12.05
2018-03-11T09:01:41.213Z,12.10
2018-03-11T09:02:43.728Z,14.07
2018-03-11T09:03:46.260Z,13.40
2018-03-11T09:04:48.791Z,15.82
2018-03-11T09:05:51.296Z,12.30
2018-03-11T09:06:53.801Z,13.27
2018-03-11T09:07:56.304Z,12.65
2018-03-11T09:08:58.806Z,14.70
2018-03-11T09:10:01.319Z,14.45
2018-03-11T09:11:03.832Z,10.55
2018-03-11T09:12:06.343Z,11.20
2018-03-11T09:13:09.798Z,12.60
2018-03-11T09:14:12.519Z,12.40
2018-03-11T09:15:15.054Z,11.35
2018-03-11T09:16:17.557Z,14.70
2018-03-11T09:17:20.053Z,11.57
2018-03-11T09:18:22.550Z,12.15
2018-03-11T09:19:25.067Z,13.68
2018-03-11T09:20:28.368Z,13.38
2018-03-11T09:21:30.875Z,12.50
2018-03-11T09:22:33.383Z,12.37
2018-03-11T09:23:36.676Z,12.70
2018-03-11T09:24:39.997Z,12.37
2018-03-11T09:25:42.529Z,13.40
2018-03-11T09:26:45.825Z,12.60
2018-03-11T09:27:49.075Z,12.50
2018-03-11T09:28:51.596Z,14.55
2018-03-11T09:29:54.090Z,12.35
2018-03-11T09:30:56.620Z,13.50
2018-03-11T09:31:59.897Z,12.18
2018-03-11T09:33:03.170Z,10.70
2018-03-11T09:34:05.683Z,12.80
2018-03-11T09:35:08.179Z,13.40
2018-03-11T09:36:10.743Z,12.77
2018-03-11T09:37:13.285Z,11.48
2018-03-11T09:38:16.580Z,12.07
2018-03-11T09:39:19.094Z,13.60
2018-03-11T09:40:21.646Z,10.93
2018-03-11T09:41:24.198Z,11.88
2018-03-11T09:42:26.728Z,10.98
2018-03-11T09:43:29.254Z,12.82
2018-03-11T09:44:31.775Z,9.93
2018-03-11T09:45:34.297Z,10.52
2018-03-11T09:46:36.835Z,10.88
2018-03-11T09:47:40.091Z,11.10
2018-03-11T09:48:42.583Z,10.57
2018-03-11T09:49:45.885Z,10.90
2018-03-11T09:50:49.159Z,9.32
2018-03-11T09:51:51.685Z,11.30
2018-03-11T09:52:54.218Z,13.15
2018-03-11T09:53:57.512Z,10.90
2018-03-11T09:55:00.019Z,9.60
2018-03-11T09:56:02.540Z,9.57
2018-03-11T09:57:05.825Z,9.95
2018-03-11T09:58:09.148Z,10.63
2018-03-11T09:59:11.737Z,11.73
2018-03-11T10:00:14.276Z,11.30
2018-03-11T10:01:16.818Z,11.18
2018-03-11T10:02:19.354Z,9.85
2018-03-11T10:03:22.001Z,11.32
2018-03-11T10:04:24.538Z,10.20
2018-03-11T10:05:27.056Z,12.70
2018-03-11T10:06:29.594Z,11.25
2018-03-11T10:07:32.888Z,12.32
2018-03-11T10:08:36.150Z,10.63
2018-03-11T10:09:39.463Z,14.60
2018-03-11T10:10:41.980Z,10.52
2018-03-11T10:11:44.492Z,11.60
2018-03-11T10:12:47.816Z,9.85
2018-03-11T10:13:50.355Z,10.45
2018-03-11T10:14:53.618Z,10.63
2018-03-11T10:15:56.122Z,11.18
2018-03-11T10:16:59.425Z,10.10
2018-03-11T10:18:01.968Z,8.95
2018-03-11T10:19:05.281Z,10.55
2018-03-11T10:20:07.795Z,10.02
2018-03-11T10:21:10.592Z,7.85
2018-03-11T10:22:13.146Z,10.88
2018-03-11T10:23:15.664Z,13.20
2018-03-11T10:24:18.172Z,9.40
2018-03-11T10:25:20.774Z,8.90
2018-03-11T10:26:23.388Z,10.07
2018-03-11T10:27:25.899Z,11.77
2018-03-11T10:28:28.538Z,8.75
2018-03-11T10:29:31.085Z,12.23
2018-03-11T10:30:34.334Z,9.45
2018-03-11T10:31:36.841Z,8.27
2018-03-11T10:32:40.133Z,7.78
2018-03-11T10:33:43.413Z,8.57
2018-03-11T10:34:46.721Z,7.78
2018-03-11T10:35:49.239Z,8.98
2018-03-11T10:36:51.768Z,10.05
2018-03-11T10:37:54.282Z,8.63
2018-03-11T10:38:56.806Z,10.80
2018-03-11T10:39:59.329Z,10.02
2018-03-11T10:41:01.855Z,7.82
2018-03-11T10:42:04.383Z,9.57
2018-03-11T10:43:06.915Z,8.63
2018-03-11T10:44:09.604Z,9.68
2018-03-11T10:45:12.153Z,9.55
2018-03-11T10:46:14.660Z,8.25
2018-03-11T10:47:18.672Z,8.07
2018-03-11T10:48:21.240Z,9.82
2018-03-11T10:49:23.748Z,8.02
2018-03-11T10:50:26.276Z,9.05
2018-03-11T10:51:28.775Z,10.20
2018-03-11T10:52:32.779Z,8.68
2018-03-11T10:53:36.072Z,7.65
2018-03-11T10:54:39.401Z,7.85
2018-03-11T10:55:41.906Z,7.65
2018-03-11T10:56:44.523Z,7.55
2018-03-11T10:57:47.045Z,7.80
2018-03-11T10:58:49.598Z,6.60
2018-03-11T10:59:52.123Z,11.38
2018-03-11T11:00:54.658Z,6.75
2018-03-11T11:02:02.888Z,7.35
2018-03-11T11:03:12.138Z,10.57
2018-03-11T11:04:15.489Z,7.78
2018-03-11T11:05:18.031Z,8.20
2018-03-11T11:06:20.576Z,6.70
2018-03-11T11:07:23.091Z,7.15
2018-03-11T11:08:25.616Z,8.48
2018-03-11T11:09:28.125Z,9.48
2018-03-11T11:10:30.647Z,7.20
2018-03-11T11:11:33.163Z,5.30
2018-03-11T11:12:35.909Z,7.05
2018-03-11T11:13:38.487Z,5.45
2018-03-11T11:14:41.008Z,4.40
2018-03-11T11:15:43.588Z,4.85
2018-03-11T11:16:46.964Z,2.67
2018-03-11T11:17:50.272Z,4.62
2018-03-11T11:18:52.808Z,4.80
2018-03-11T11:19:55.330Z,2.78
2018-03-11T11:20:57.865Z,3.92
2018-03-11T11:22:00.406Z,5.60
2018-03-11T11:23:02.893Z,3.60
2018-03-11T11:24:05.396Z,2.85
2018-03-11T11:25:08.663Z,2.30
2018-03-11T11:26:12.204Z,3.70
2018-03-11T11:27:14.957Z,4.40
2018-03-11T11:28:18.235Z,2.42
2018-03-11T11:29:21.519Z,2.60
2018-03-11T11:30:24.806Z,3.85
2018-03-11T11:31:27.367Z,7.15
2018-03-11T11:32:29.892Z,2.55
2018-03-11T11:33:32.413Z,3.62
2018-03-11T11:34:35.023Z,2.33
2018-03-11T11:35:37.537Z,3.00
2018-03-11T11:36:40.040Z,3.20
2018-03-11T11:37:43.315Z,3.83
2018-03-11T11:38:45.832Z,4.05
2018-03-11T11:39:48.317Z,3.75
2018-03-11T11:40:50.842Z,3.50
2018-03-11T11:41:54.162Z,7.75
2018-03-11T11:42:56.731Z,5.57
2018-03-11T11:43:59.240Z,3.03
2018-03-11T11:45:01.767Z,4.10
2018-03-11T11:46:04.294Z,5.37
2018-03-11T11:47:06.813Z,4.25
2018-03-11T11:48:09.352Z,4.18
2018-03-11T11:49:12.811Z,3.62
2018-03-11T11:50:15.323Z,3.53
2018-03-11T11:51:18.598Z,3.15
2018-03-11T11:52:21.872Z,4.57
2018-03-11T11:53:24.388Z,3.45
2018-03-11T11:54:26.889Z,3.42
2018-03-11T11:55:29.399Z,3.87
2018-03-11T11:56:32.693Z,3.20
2018-03-11T11:57:35.997Z,4.25
2018-03-11T11:58:39.294Z,4.25
2018-03-11T11:59:41.865Z,3.00
2018-03-11T12:00:44.415Z,2.80
2018-03-11T12:01:46.899Z,3.20
2018-03-11T12:02:49.402Z,3.95
2018-03-11T12:03:51.913Z,4.57
2018-03-11T12:04:55.201Z,3.40
2018-03-11T12:05:58.476Z,4.20
2018-03-11T12:07:01.050Z,4.85
2018-03-11T12:08:03.563Z,3.47
2018-03-11T12:09:06.693Z,2.42
2018-03-11T12:10:09.192Z,3.08
2018-03-11T12:11:12.609Z,2.97
2018-03-11T12:12:15.216Z,4.62
2018-03-11T12:13:17.717Z,6.22
2018-03-11T12:14:20.254Z,3.78
2018-03-11T12:15:22.759Z,3.30
2018-03-11T12:16:26.049Z,5.18
2018-03-11T12:17:29.339Z,2.45
2018-03-11T12:18:31.869Z,3.10
2018-03-11T12:19:34.415Z,3.58
2018-03-11T12:20:36.928Z,7.03
2018-03-11T12:21:39.454Z,4.30
2018-03-11T12:22:41.971Z,4.78
2018-03-11T12:23:44.463Z,5.10
2018-03-11T12:24:46.987Z,4.90
2018-03-11T12:25:49.633Z,3.10
2018-03-11T12:26:52.180Z,4.65
2018-03-11T12:27:55.453Z,2.78
2018-03-11T12:28:59.476Z,3.58
2018-03-11T12:30:02.798Z,2.50
2018-03-11T12:31:05.300Z,4.05
2018-03-11T12:32:07.809Z,3.10
2018-03-11T12:33:11.176Z,4.70
2018-03-11T12:34:13.803Z,3.78
2018-03-11T12:35:16.338Z,4.50
2018-03-11T12:36:18.848Z,3.80
2018-03-11T12:37:21.356Z,4.30
2018-03-11T12:38:23.881Z,4.32
2018-03-11T12:39:26.386Z,6.85
2018-03-11T12:40:28.901Z,4.55
2018-03-11T12:41:32.179Z,3.47
2018-03-11T12:42:35.569Z,2.15
2018-03-11T12:43:38.988Z,3.90
2018-03-11T12:44:41.506Z,6.28
2018-03-11T12:45:44.014Z,2.53
2018-03-11T12:46:47.276Z,3.45
2018-03-11T12:47:49.775Z,6.35
2018-03-11T12:48:52.279Z,2.70
2018-03-11T12:49:54.791Z,3.55
2018-03-11T12:50:58.076Z,3.08
2018-03-11T12:52:00.587Z,3.97
2018-03-11T12:53:03.097Z,2.22
2018-03-11T12:54:05.598Z,4.15
2018-03-11T12:55:08.892Z,2.58
2018-03-11T12:56:12.320Z,2.92
2018-03-11T12:57:14.811Z,3.85
2018-03-11T12:58:17.325Z,2.80
2018-03-11T12:59:20.608Z,3.62
2018-03-11T13:00:23.892Z,3.65
2018-03-11T13:01:27.180Z,3.87
2018-03-11T13:02:30.500Z,3.35
2018-03-11T13:03:33.019Z,2.50
2018-03-11T13:04:35.527Z,2.50
2018-03-11T13:05:38.050Z,7.25
2018-03-11T13:06:40.578Z,2.80
2018-03-11T13:07:43.103Z,3.62
2018-03-11T13:08:45.594Z,3.25
2018-03-11T13:09:48.872Z,4.30
2018-03-11T13:10:51.397Z,4.32
2018-03-11T13:11:54.055Z,2.75
2018-03-11T13:12:56.576Z,2.20
2018-03-11T13:14:00.609Z,2.33
2018-03-11T13:15:03.883Z,4.93
2018-03-11T13:16:06.383Z,3.10
2018-03-11T13:17:08.914Z,2.53
2018-03-11T13:18:11.603Z,4.78
2018-03-11T13:19:14.940Z,2.67
2018-03-11T13:20:29.508Z,3.17
2018-03-11T13:21:32.028Z,4.70
2018-03-11T13:22:35.336Z,2.45
2018-03-11T13:23:37.838Z,5.07
2018-03-11T13:24:40.328Z,3.15
2018-03-11T13:25:42.878Z,3.80
2018-03-11T13:26:45.375Z,7.50
2018-03-11T13:27:59.769Z,2.80
2018-03-11T13:29:02.285Z,2.75
2018-03-11T13:30:04.784Z,3.15
2018-03-11T13:31:07.404Z,2.67
2018-03-11T13:32:21.758Z,3.20
2018-03-11T13:33:35.996Z,2.15
2018-03-11T13:34:38.512Z,2.75
2018-03-11T13:35:41.044Z,9.85
2018-03-11T13:36:43.702Z,2.35
2018-03-11T13:37:46.225Z,2.62
2018-03-11T13:39:00.742Z,2.87